LGRP/RHO METAR and TAF weather

Enter ICAO airport designator
Station Type Date Time Source
LGRP METAR 2024/04/17 18:20 UTC NOAA

LGRP 171820Z 10008G18KT 360V140 9999 FEW020 22/14 Q1001 WS ALL RWY NOSIG


Station Type Date Time Source
LGRP Decoded METAR 2024/04/17 18:20 UTC NOAA

Rhodes Airport , Greece (LGRP) 36-24N 028-05E 11M
Apr 17, 2024 - 02:20 PM EDT / 2024.04.17 1820 UTC
Wind: from the E (100 degrees) at 9 MPH (8 KT) gusting to 21 MPH (18 KT) (direction variable):0
Visibility: greater than 7 mile(s):0
Sky conditions: mostly clear
Temperature: 71 F (22 C)
Dew Point: 57 F (14 C)
Relative Humidity: 60%
Pressure (altimeter): 29.56 in. Hg (1001 hPa)
ob: LGRP 171820Z 10008G18KT 360V140 9999 FEW020 22/14 Q1001 WS ALL RWY NOSIG
cycle: 18

Station Type Date Time Source
LGRP TAF 2024/04/17 18:12 UTC NOAA